sensor_id;sensor_type;location;lat;lon;timestamp;pressure;altitude;pressure_sealevel;temperature;humidity
18022;BME280;9136;48.822;7.966;2023-05-03T00:02:01;101122.44;;;9.26;100.00
18022;BME280;9136;48.822;7.966;2023-05-03T00:04:51;101120.66;;;9.26;100.00
18022;BME280;9136;48.822;7.966;2023-05-03T00:07:41;101087.84;;;8.99;100.00
18022;BME280;9136;48.822;7.966;2023-05-03T00:10:29;101139.13;;;9.20;100.00
18022;BME280;9136;48.822;7.966;2023-05-03T00:13:18;101136.59;;;9.12;100.00
18022;BME280;9136;48.822;7.966;2023-05-03T00:16:06;101133.13;;;9.10;100.00
18022;BME280;9136;48.822;7.966;2023-05-03T00:18:55;101123.66;;;8.97;100.00
18022;BME280;9136;48.822;7.966;2023-05-03T00:21:43;101102.84;;;8.83;100.00
18022;BME280;9136;48.822;7.966;2023-05-03T00:24:31;101113.38;;;8.82;100.00
18022;BME280;9136;48.822;7.966;2023-05-03T00:27:19;101142.03;;;8.94;100.00
18022;BME280;9136;48.822;7.966;2023-05-03T00:30:07;101120.41;;;8.75;100.00
18022;BME280;9136;48.822;7.966;2023-05-03T00:32:56;101128.31;;;8.72;100.00
18022;BME280;9136;48.822;7.966;2023-05-03T00:35:45;101080.44;;;8.56;100.00
18022;BME280;9136;48.822;7.966;2023-05-03T00:38:33;101135.19;;;8.82;100.00
18022;BME280;9136;48.822;7.966;2023-05-03T00:41:21;101113.41;;;8.76;100.00
18022;BME280;9136;48.822;7.966;2023-05-03T00:44:09;101080.47;;;8.55;100.00
18022;BME280;9136;48.822;7.966;2023-05-03T00:46:57;101096.97;;;8.63;100.00
18022;BME280;9136;48.822;7.966;2023-05-03T00:49:45;101076.25;;;8.43;100.00
18022;BME280;9136;48.822;7.966;2023-05-03T00:52:34;101116.31;;;8.51;100.00
18022;BME280;9136;48.822;7.966;2023-05-03T00:55:22;101100.59;;;8.48;100.00
18022;BME280;9136;48.822;7.966;2023-05-03T00:58:11;101086.75;;;8.34;100.00
18022;BME280;9136;48.822;7.966;2023-05-03T01:00:59;101108.47;;;8.47;100.00
18022;BME280;9136;48.822;7.966;2023-05-03T01:03:48;101105.06;;;8.42;100.00
18022;BME280;9136;48.822;7.966;2023-05-03T01:06:42;101107.69;;;8.42;100.00
18022;BME280;9136;48.822;7.966;2023-05-03T01:09:42;101101.63;;;8.29;100.00
18022;BME280;9136;48.822;7.966;2023-05-03T01:12:40;101099.88;;;8.36;100.00
18022;BME280;9136;48.822;7.966;2023-05-03T01:15:40;101078.19;;;8.17;100.00
18022;BME280;9136;48.822;7.966;2023-05-03T01:18:35;101100.75;;;8.35;100.00
18022;BME280;9136;48.822;7.966;2023-05-03T01:21:24;101079.97;;;8.13;100.00
18022;BME280;9136;48.822;7.966;2023-05-03T01:24:15;101108.69;;;8.24;100.00
18022;BME280;9136;48.822;7.966;2023-05-03T01:27:06;101080.00;;;8.12;100.00
18022;BME280;9136;48.822;7.966;2023-05-03T01:29:54;101081.75;;;8.10;100.00
18022;BME280;9136;48.822;7.966;2023-05-03T01:32:59;101086.19;;;8.03;100.00
18022;BME280;9136;48.822;7.966;2023-05-03T01:35:53;101068.91;;;7.82;100.00
18022;BME280;9136;48.822;7.966;2023-05-03T01:38:44;101061.06;;;7.84;100.00
18022;BME280;9136;48.822;7.966;2023-05-03T01:41:33;101061.91;;;7.81;100.00
18022;BME280;9136;48.822;7.966;2023-05-03T01:44:23;101071.41;;;7.94;100.00
18022;BME280;9136;48.822;7.966;2023-05-03T01:47:12;101054.06;;;7.84;100.00
18022;BME280;9136;48.822;7.966;2023-05-03T01:50:00;101058.41;;;7.87;100.00
18022;BME280;9136;48.822;7.966;2023-05-03T01:52:48;101083.63;;;7.94;100.00
18022;BME280;9136;48.822;7.966;2023-05-03T01:55:37;101048.97;;;7.67;100.00
18022;BME280;9136;48.822;7.966;2023-05-03T01:58:25;101068.94;;;7.78;100.00
18022;BME280;9136;48.822;7.966;2023-05-03T02:01:14;101056.03;;;7.56;100.00
18022;BME280;9136;48.822;7.966;2023-05-03T02:04:02;101080.31;;;7.69;100.00
18022;BME280;9136;48.822;7.966;2023-05-03T02:06:50;101035.19;;;7.45;100.00
18022;BME280;9136;48.822;7.966;2023-05-03T02:09:37;101062.94;;;7.60;100.00
18022;BME280;9136;48.822;7.966;2023-05-03T02:12:25;101071.66;;;7.61;100.00
18022;BME280;9136;48.822;7.966;2023-05-03T02:15:13;101068.22;;;7.57;100.00
18022;BME280;9136;48.822;7.966;2023-05-03T02:18:03;101069.19;;;7.44;100.00
18022;BME280;9136;48.822;7.966;2023-05-03T02:20:51;101088.34;;;7.44;100.00
18022;BME280;9136;48.822;7.966;2023-05-03T02:23:39;101079.72;;;7.29;100.00
18022;BME280;9136;48.822;7.966;2023-05-03T02:26:26;101051.91;;;7.18;100.00
18022;BME280;9136;48.822;7.966;2023-05-03T02:29:14;101077.91;;;7.38;100.00
18022;BME280;9136;48.822;7.966;2023-05-03T02:32:02;101074.47;;;7.30;100.00
18022;BME280;9136;48.822;7.966;2023-05-03T02:34:53;101050.19;;;7.14;100.00
18022;BME280;9136;48.822;7.966;2023-05-03T02:37:40;101081.44;;;7.31;100.00
18022;BME280;9136;48.822;7.966;2023-05-03T02:40:29;101053.72;;;7.06;100.00
18022;BME280;9136;48.822;7.966;2023-05-03T02:43:16;101061.56;;;7.06;100.00
18022;BME280;9136;48.822;7.966;2023-05-03T02:46:04;101063.31;;;6.99;100.00
18022;BME280;9136;48.822;7.966;2023-05-03T02:48:52;101069.38;;;7.06;100.00
18022;BME280;9136;48.822;7.966;2023-05-03T02:51:41;101047.63;;;6.99;100.00
18022;BME280;9136;48.822;7.966;2023-05-03T02:54:29;101072.81;;;7.12;100.00
18022;BME280;9136;48.822;7.966;2023-05-03T02:57:17;101053.72;;;7.06;100.00
18022;BME280;9136;48.822;7.966;2023-05-03T03:00:07;101082.34;;;7.21;100.00
18022;BME280;9136;48.822;7.966;2023-05-03T03:02:55;101044.16;;;6.99;100.00
18022;BME280;9136;48.822;7.966;2023-05-03T03:05:43;101071.06;;;7.13;100.00
18022;BME280;9136;48.822;7.966;2023-05-03T03:08:32;101080.72;;;7.05;100.00
18022;BME280;9136;48.822;7.966;2023-05-03T03:11:20;101086.75;;;7.13;100.00
18022;BME280;9136;48.822;7.966;2023-05-03T03:14:09;101073.72;;;7.04;100.00
18022;BME280;9136;48.822;7.966;2023-05-03T03:16:57;101055.47;;;7.01;100.00
18022;BME280;9136;48.822;7.966;2023-05-03T03:19:45;101045.91;;;6.94;100.00
18022;BME280;9136;48.822;7.966;2023-05-03T03:22:32;101066.81;;;6.97;100.00
18022;BME280;9136;48.822;7.966;2023-05-03T03:25:22;101060.75;;;6.88;100.00
18022;BME280;9136;48.822;7.966;2023-05-03T03:28:10;101055.56;;;6.85;100.00
18022;BME280;9136;48.822;7.966;2023-05-03T03:30:57;101062.47;;;6.96;100.00
18022;BME280;9136;48.822;7.966;2023-05-03T03:33:45;101065.94;;;6.95;100.00
18022;BME280;9136;48.822;7.966;2023-05-03T03:36:33;101052.88;;;6.93;100.00
18022;BME280;9136;48.822;7.966;2023-05-03T03:39:23;101033.78;;;6.80;100.00
18022;BME280;9136;48.822;7.966;2023-05-03T03:42:12;101031.19;;;6.74;100.00
18022;BME280;9136;48.822;7.966;2023-05-03T03:45:00;101064.25;;;6.86;100.00
18022;BME280;9136;48.822;7.966;2023-05-03T03:47:48;101067.69;;;6.93;100.00
18022;BME280;9136;48.822;7.966;2023-05-03T03:50:36;101050.34;;;6.75;100.00
18022;BME280;9136;48.822;7.966;2023-05-03T03:53:23;101047.75;;;6.70;100.00
18022;BME280;9136;48.822;7.966;2023-05-03T03:56:11;101065.16;;;6.71;100.00
18022;BME280;9136;48.822;7.966;2023-05-03T03:59:00;101064.28;;;6.80;100.00
18022;BME280;9136;48.822;7.966;2023-05-03T04:01:48;101057.31;;;6.74;100.00
18022;BME280;9136;48.822;7.966;2023-05-03T04:04:36;101056.44;;;6.80;100.00
18022;BME280;9136;48.822;7.966;2023-05-03T04:07:24;101066.91;;;6.77;100.00
18022;BME280;9136;48.822;7.966;2023-05-03T04:10:11;101048.63;;;6.65;100.00
18022;BME280;9136;48.822;7.966;2023-05-03T04:12:59;101053.88;;;6.68;100.00
18022;BME280;9136;48.822;7.966;2023-05-03T04:15:53;101060.81;;;6.73;100.00
18022;BME280;9136;48.822;7.966;2023-05-03T04:18:41;101048.66;;;6.62;100.00
18022;BME280;9136;48.822;7.966;2023-05-03T04:21:29;101086.00;;;6.86;100.00
18022;BME280;9136;48.822;7.966;2023-05-03T04:24:17;101072.09;;;6.75;100.00
18022;BME280;9136;48.822;7.966;2023-05-03T04:27:05;101050.41;;;6.67;100.00
18022;BME280;9136;48.822;7.966;2023-05-03T04:29:53;101054.75;;;6.67;100.00
18022;BME280;9136;48.822;7.966;2023-05-03T04:32:43;101056.50;;;6.54;100.00
18022;BME280;9136;48.822;7.966;2023-05-03T04:35:32;101059.09;;;6.66;100.00
18022;BME280;9136;48.822;7.966;2023-05-03T04:38:21;101077.34;;;6.74;100.00
18022;BME280;9136;48.822;7.966;2023-05-03T04:41:09;101053.00;;;6.61;100.00
18022;BME280;9136;48.822;7.966;2023-05-03T04:43:57;101071.19;;;6.84;100.00
18022;BME280;9136;48.822;7.966;2023-05-03T04:46:45;101068.63;;;6.79;100.00
18022;BME280;9136;48.822;7.966;2023-05-03T04:49:35;101062.56;;;6.70;100.00
18022;BME280;9136;48.822;7.966;2023-05-03T04:52:24;101083.41;;;6.82;100.00
18022;BME280;9136;48.822;7.966;2023-05-03T04:55:12;101043.41;;;6.65;100.00
18022;BME280;9136;48.822;7.966;2023-05-03T04:58:00;101051.25;;;6.63;100.00
18022;BME280;9136;48.822;7.966;2023-05-03T05:00:48;101057.34;;;6.71;100.00
18022;BME280;9136;48.822;7.966;2023-05-03T05:03:36;101089.47;;;6.88;100.00
18022;BME280;9136;48.822;7.966;2023-05-03T05:06:25;101086.00;;;6.88;100.00
18022;BME280;9136;48.822;7.966;2023-05-03T05:09:22;101100.75;;;7.01;100.00
18022;BME280;9136;48.822;7.966;2023-05-03T05:12:11;101065.94;;;6.93;100.00
18022;BME280;9136;48.822;7.966;2023-05-03T05:14:59;101074.59;;;7.03;100.00
18022;BME280;9136;48.822;7.966;2023-05-03T05:17:47;101095.47;;;7.15;100.00
18022;BME280;9136;48.822;7.966;2023-05-03T05:20:35;101059.84;;;6.99;100.00
18022;BME280;9136;48.822;7.966;2023-05-03T05:23:24;101049.38;;;7.02;100.00
18022;BME280;9136;48.822;7.966;2023-05-03T05:26:13;101069.34;;;7.16;100.00
18022;BME280;9136;48.822;7.966;2023-05-03T05:29:01;101091.88;;;7.36;100.00
18022;BME280;9136;48.822;7.966;2023-05-03T05:31:49;101069.25;;;7.30;100.00
18022;BME280;9136;48.822;7.966;2023-05-03T05:34:37;101075.25;;;7.47;100.00
18022;BME280;9136;48.822;7.966;2023-05-03T05:37:25;101086.56;;;7.48;100.00
18022;BME280;9136;48.822;7.966;2023-05-03T05:40:15;101069.97;;;7.55;100.00
18022;BME280;9136;48.822;7.966;2023-05-03T05:43:03;101072.56;;;7.58;100.00
18022;BME280;9136;48.822;7.966;2023-05-03T05:45:51;101071.66;;;7.65;100.00
18022;BME280;9136;48.822;7.966;2023-05-03T05:48:39;101072.50;;;7.67;100.00
18022;BME280;9136;48.822;7.966;2023-05-03T05:51:27;101075.94;;;7.75;100.00
18022;BME280;9136;48.822;7.966;2023-05-03T05:54:15;101081.97;;;7.84;100.00
18022;BME280;9136;48.822;7.966;2023-05-03T05:57:04;101094.06;;;7.97;100.00
18022;BME280;9136;48.822;7.966;2023-05-03T05:59:53;101089.78;;;7.91;100.00
18022;BME280;9136;48.822;7.966;2023-05-03T06:02:40;101095.78;;;7.99;100.00
18022;BME280;9136;48.822;7.966;2023-05-03T06:05:48;101083.53;;;8.04;100.00
18022;BME280;9136;48.822;7.966;2023-05-03T06:08:36;101084.38;;;8.08;100.00
18022;BME280;9136;48.822;7.966;2023-05-03T06:11:24;101089.53;;;8.17;100.00
18022;BME280;9136;48.822;7.966;2023-05-03T06:14:13;101095.59;;;8.22;100.00
18022;BME280;9136;48.822;7.966;2023-05-03T06:17:02;101104.28;;;8.26;100.00
18022;BME280;9136;48.822;7.966;2023-05-03T06:19:50;101075.56;;;8.18;100.00
18022;BME280;9136;48.822;7.966;2023-05-03T06:22:37;101099.75;;;8.48;100.00
18022;BME280;9136;48.822;7.966;2023-05-03T06:25:26;101060.56;;;8.39;100.00
18022;BME280;9136;48.822;7.966;2023-05-03T06:28:13;101081.34;;;8.54;100.00
18022;BME280;9136;48.822;7.966;2023-05-03T06:31:03;101089.91;;;8.68;100.00
18022;BME280;9136;48.822;7.966;2023-05-03T06:33:51;101071.59;;;8.68;100.00
18022;BME280;9136;48.822;7.966;2023-05-03T06:36:39;101049.84;;;8.62;100.00
18022;BME280;9136;48.822;7.966;2023-05-03T06:39:27;101051.53;;;8.69;100.00
18022;BME280;9136;48.822;7.966;2023-05-03T06:42:23;101060.84;;;8.91;100.00
18022;BME280;9136;48.822;7.966;2023-05-03T06:45:11;101066.81;;;9.02;100.00
18022;BME280;9136;48.822;7.966;2023-05-03T06:48:00;101060.59;;;9.11;100.00
18022;BME280;9136;48.822;7.966;2023-05-03T06:50:49;101052.69;;;9.14;100.00
18022;BME280;9136;48.822;7.966;2023-05-03T06:53:36;101071.56;;;9.39;100.00
18022;BME280;9136;48.822;7.966;2023-05-03T06:56:25;101043.66;;;9.33;100.00
18022;BME280;9136;48.822;7.966;2023-05-03T06:59:14;101082.56;;;9.64;100.00
18022;BME280;9136;48.822;7.966;2023-05-03T07:02:02;101072.91;;;9.67;100.00
18022;BME280;9136;48.822;7.966;2023-05-03T07:04:52;101045.06;;;9.57;100.00
18022;BME280;9136;48.822;7.966;2023-05-03T07:07:39;101077.03;;;9.82;100.00
18022;BME280;9136;48.822;7.966;2023-05-03T07:10:27;101085.50;;;9.99;100.00
18022;BME280;9136;48.822;7.966;2023-05-03T07:13:16;101063.69;;;9.96;100.00
18022;BME280;9136;48.822;7.966;2023-05-03T07:16:04;101053.22;;;9.94;100.00
18022;BME280;9136;48.822;7.966;2023-05-03T07:18:52;101038.06;;;10.10;100.00
18022;BME280;9136;48.822;7.966;2023-05-03T07:21:41;101076.22;;;10.31;100.00
18022;BME280;9136;48.822;7.966;2023-05-03T07:24:29;101047.50;;;10.20;100.00
18022;BME280;9136;48.822;7.966;2023-05-03T07:27:17;101068.88;;;10.50;100.00
18022;BME280;9136;48.822;7.966;2023-05-03T07:30:06;101069.59;;;10.58;100.00
18022;BME280;9136;48.822;7.966;2023-05-03T07:32:54;101038.88;;;10.63;100.00
18022;BME280;9136;48.822;7.966;2023-05-03T07:35:41;101044.78;;;10.74;100.00
18022;BME280;9136;48.822;7.966;2023-05-03T07:38:33;101059.22;;;10.95;100.00
18022;BME280;9136;48.822;7.966;2023-05-03T07:41:21;101046.25;;;10.87;100.00
18022;BME280;9136;48.822;7.966;2023-05-03T07:44:09;101061.94;;;10.92;100.00
18022;BME280;9136;48.822;7.966;2023-05-03T07:46:57;101066.88;;;11.06;100.00
18022;BME280;9136;48.822;7.966;2023-05-03T07:49:45;101054.53;;;11.11;100.00
18022;BME280;9136;48.822;7.966;2023-05-03T07:52:35;101029.09;;;11.11;100.00
18022;BME280;9136;48.822;7.966;2023-05-03T07:55:24;101050.31;;;11.42;100.00
18022;BME280;9136;48.822;7.966;2023-05-03T07:58:13;101034.66;;;11.36;100.00
18022;BME280;9136;48.822;7.966;2023-05-03T08:01:01;101043.16;;;11.47;100.00
18022;BME280;9136;48.822;7.966;2023-05-03T08:03:50;101047.13;;;11.65;100.00
18022;BME280;9136;48.822;7.966;2023-05-03T08:06:38;101052.38;;;11.65;100.00
18022;BME280;9136;48.822;7.966;2023-05-03T08:09:25;101047.84;;;11.72;100.00
18022;BME280;9136;48.822;7.966;2023-05-03T08:12:15;101072.44;;;11.71;100.00
18022;BME280;9136;48.822;7.966;2023-05-03T08:15:03;101041.88;;;11.65;100.00
18022;BME280;9136;48.822;7.966;2023-05-03T08:17:52;101034.38;;;11.86;100.00
18022;BME280;9136;48.822;7.966;2023-05-03T08:20:40;101062.38;;;12.24;100.00
18022;BME280;9136;48.822;7.966;2023-05-03T08:23:29;101048.94;;;12.33;100.00
18022;BME280;9136;48.822;7.966;2023-05-03T08:26:18;101073.19;;;12.47;100.00
18022;BME280;9136;48.822;7.966;2023-05-03T08:29:09;101055.66;;;12.45;100.00
18022;BME280;9136;48.822;7.966;2023-05-03T08:31:57;101044.97;;;12.51;100.00
18022;BME280;9136;48.822;7.966;2023-05-03T08:34:48;101042.47;;;12.46;100.00
18022;BME280;9136;48.822;7.966;2023-05-03T08:37:37;101057.78;;;12.63;100.00
18022;BME280;9136;48.822;7.966;2023-05-03T08:40:26;101085.41;;;12.81;100.00
18022;BME280;9136;48.822;7.966;2023-05-03T08:43:15;101071.78;;;12.67;100.00
18022;BME280;9136;48.822;7.966;2023-05-03T08:46:09;101046.84;;;12.78;100.00
18022;BME280;9136;48.822;7.966;2023-05-03T08:48:57;101063.81;;;12.99;100.00
18022;BME280;9136;48.822;7.966;2023-05-03T08:51:47;101055.78;;;13.04;100.00
18022;BME280;9136;48.822;7.966;2023-05-03T08:54:36;101065.13;;;13.14;100.00
18022;BME280;9136;48.822;7.966;2023-05-03T08:57:24;101051.63;;;13.54;100.00
18022;BME280;9136;48.822;7.966;2023-05-03T09:00:13;101033.09;;;13.28;100.00
18022;BME280;9136;48.822;7.966;2023-05-03T09:03:03;101031.41;;;13.53;100.00
18022;BME280;9136;48.822;7.966;2023-05-03T09:05:51;101052.75;;;13.45;100.00
18022;BME280;9136;48.822;7.966;2023-05-03T09:08:41;101051.84;;;13.46;100.00
18022;BME280;9136;48.822;7.966;2023-05-03T09:11:30;101034.09;;;13.52;100.00
18022;BME280;9136;48.822;7.966;2023-05-03T09:14:18;101033.03;;;13.57;100.00
18022;BME280;9136;48.822;7.966;2023-05-03T09:17:13;101032.72;;;13.66;100.00
18022;BME280;9136;48.822;7.966;2023-05-03T09:20:04;101043.38;;;13.91;100.00
18022;BME280;9136;48.822;7.966;2023-05-03T09:22:54;101055.09;;;13.83;100.00
18022;BME280;9136;48.822;7.966;2023-05-03T09:25:43;101048.38;;;13.99;100.00
18022;BME280;9136;48.822;7.966;2023-05-03T09:28:39;101074.94;;;14.47;100.00
18022;BME280;9136;48.822;7.966;2023-05-03T09:31:27;101074.44;;;14.61;100.00
18022;BME280;9136;48.822;7.966;2023-05-03T09:34:22;101029.72;;;14.55;100.00
18022;BME280;9136;48.822;7.966;2023-05-03T09:37:11;101036.97;;;14.73;100.00
18022;BME280;9136;48.822;7.966;2023-05-03T09:40:04;101044.94;;;14.97;100.00
18022;BME280;9136;48.822;7.966;2023-05-03T09:43:06;101031.88;;;15.15;100.00
18022;BME280;9136;48.822;7.966;2023-05-03T09:46:07;101028.81;;;15.48;100.00
18022;BME280;9136;48.822;7.966;2023-05-03T09:48:55;101045.97;;;15.60;100.00
18022;BME280;9136;48.822;7.966;2023-05-03T09:51:43;101021.19;;;15.62;100.00
18022;BME280;9136;48.822;7.966;2023-05-03T09:54:33;101038.91;;;15.82;100.00
18022;BME280;9136;48.822;7.966;2023-05-03T09:57:22;101018.97;;;15.73;100.00
18022;BME280;9136;48.822;7.966;2023-05-03T10:00:11;101026.78;;;15.55;100.00
18022;BME280;9136;48.822;7.966;2023-05-03T10:03:06;101028.03;;;15.68;100.00
18022;BME280;9136;48.822;7.966;2023-05-03T10:05:54;101000.56;;;15.91;100.00
18022;BME280;9136;48.822;7.966;2023-05-03T10:08:47;101010.69;;;16.23;100.00
18022;BME280;9136;48.822;7.966;2023-05-03T10:11:49;101024.63;;;16.47;100.00
18022;BME280;9136;48.822;7.966;2023-05-03T10:14:40;101023.81;;;16.66;100.00
18022;BME280;9136;48.822;7.966;2023-05-03T10:17:31;101001.53;;;16.49;100.00
18022;BME280;9136;48.822;7.966;2023-05-03T10:20:25;100996.25;;;16.70;100.00
18022;BME280;9136;48.822;7.966;2023-05-03T10:23:14;101002.22;;;16.94;100.00
18022;BME280;9136;48.822;7.966;2023-05-03T10:26:14;100995.69;;;16.82;100.00
18022;BME280;9136;48.822;7.966;2023-05-03T10:29:04;101008.03;;;16.83;100.00
18022;BME280;9136;48.822;7.966;2023-05-03T10:31:53;100993.91;;;17.01;100.00
18022;BME280;9136;48.822;7.966;2023-05-03T10:34:42;100998.47;;;17.16;100.00
18022;BME280;9136;48.822;7.966;2023-05-03T10:37:31;101000.53;;;17.48;98.40
18022;BME280;9136;48.822;7.966;2023-05-03T10:40:20;100983.13;;;17.59;94.24
18022;BME280;9136;48.822;7.966;2023-05-03T10:43:42;100976.09;;;17.58;99.63
18022;BME280;9136;48.822;7.966;2023-05-03T10:46:35;100992.63;;;17.82;94.48
18022;BME280;9136;48.822;7.966;2023-05-03T10:49:24;100969.88;;;17.94;94.43
18022;BME280;9136;48.822;7.966;2023-05-03T10:52:46;100967.75;;;18.00;85.81
18022;BME280;9136;48.822;7.966;2023-05-03T10:55:34;100981.16;;;18.82;74.43
18022;BME280;9136;48.822;7.966;2023-05-03T10:58:25;100970.31;;;19.94;68.09
18022;BME280;9136;48.822;7.966;2023-05-03T11:01:15;100965.09;;;21.88;57.07
18022;BME280;9136;48.822;7.966;2023-05-03T11:04:07;100975.56;;;22.31;55.05
18022;BME280;9136;48.822;7.966;2023-05-03T11:06:56;100972.50;;;23.59;48.76
18022;BME280;9136;48.822;7.966;2023-05-03T11:09:44;100957.97;;;22.65;46.82
18022;BME280;9136;48.822;7.966;2023-05-03T11:12:33;100982.69;;;23.78;46.86
18022;BME280;9136;48.822;7.966;2023-05-03T11:15:21;100957.84;;;24.78;45.51
18022;BME280;9136;48.822;7.966;2023-05-03T11:18:09;100968.78;;;25.63;44.56
18022;BME280;9136;48.822;7.966;2023-05-03T11:20:59;100958.13;;;26.15;41.18
18022;BME280;9136;48.822;7.966;2023-05-03T11:23:50;100944.78;;;26.34;41.12
18022;BME280;9136;48.822;7.966;2023-05-03T11:26:39;100942.19;;;26.02;39.68
18022;BME280;9136;48.822;7.966;2023-05-03T11:29:27;100944.25;;;26.71;40.81
18022;BME280;9136;48.822;7.966;2023-05-03T11:32:17;100933.34;;;27.13;40.53
18022;BME280;9136;48.822;7.966;2023-05-03T11:35:05;100945.53;;;26.67;38.98
18022;BME280;9136;48.822;7.966;2023-05-03T11:37:55;100936.50;;;26.47;39.49
18022;BME280;9136;48.822;7.966;2023-05-03T11:40:43;100947.66;;;25.91;39.34
18022;BME280;9136;48.822;7.966;2023-05-03T11:43:31;100932.41;;;26.01;39.46
18022;BME280;9136;48.822;7.966;2023-05-03T11:46:21;100916.88;;;26.35;38.70
18022;BME280;9136;48.822;7.966;2023-05-03T11:49:16;100922.22;;;26.56;39.37
18022;BME280;9136;48.822;7.966;2023-05-03T11:52:04;100911.00;;;26.51;38.27
18022;BME280;9136;48.822;7.966;2023-05-03T11:54:55;100924.59;;;26.90;38.21
18022;BME280;9136;48.822;7.966;2023-05-03T11:57:43;100919.91;;;26.92;36.52
18022;BME280;9136;48.822;7.966;2023-05-03T12:00:32;100917.59;;;27.47;37.95
18022;BME280;9136;48.822;7.966;2023-05-03T12:03:21;100916.66;;;28.14;36.00
18022;BME280;9136;48.822;7.966;2023-05-03T12:06:10;100908.81;;;27.74;36.83
18022;BME280;9136;48.822;7.966;2023-05-03T12:08:59;100907.88;;;28.12;37.45
18022;BME280;9136;48.822;7.966;2023-05-03T12:11:50;100899.03;;;28.57;36.28
18022;BME280;9136;48.822;7.966;2023-05-03T12:14:57;100904.56;;;29.10;35.12
18022;BME280;9136;48.822;7.966;2023-05-03T12:17:45;100898.66;;;29.24;34.61
18022;BME280;9136;48.822;7.966;2023-05-03T12:20:34;100900.38;;;28.70;36.63
18022;BME280;9136;48.822;7.966;2023-05-03T12:23:25;100918.59;;;27.84;35.87
18022;BME280;9136;48.822;7.966;2023-05-03T12:26:13;100896.19;;;28.21;35.73
18022;BME280;9136;48.822;7.966;2023-05-03T12:29:02;100897.06;;;28.12;34.75
18022;BME280;9136;48.822;7.966;2023-05-03T12:31:50;100882.09;;;28.17;35.47
18022;BME280;9136;48.822;7.966;2023-05-03T12:34:39;100904.53;;;28.65;34.27
18022;BME280;9136;48.822;7.966;2023-05-03T12:37:27;100886.81;;;28.52;34.76
18022;BME280;9136;48.822;7.966;2023-05-03T12:40:17;100875.56;;;28.20;36.66
18022;BME280;9136;48.822;7.966;2023-05-03T12:43:16;100869.25;;;28.66;33.80
18022;BME280;9136;48.822;7.966;2023-05-03T12:46:05;100853.47;;;28.89;33.67
18022;BME280;9136;48.822;7.966;2023-05-03T12:48:57;100861.78;;;28.50;32.91
18022;BME280;9136;48.822;7.966;2023-05-03T12:51:45;100875.84;;;27.51;32.99
18022;BME280;9136;48.822;7.966;2023-05-03T12:54:34;100856.72;;;26.65;36.48
18022;BME280;9136;48.822;7.966;2023-05-03T12:57:22;100863.78;;;27.35;36.43
18022;BME280;9136;48.822;7.966;2023-05-03T13:00:13;100861.31;;;28.18;34.84
18022;BME280;9136;48.822;7.966;2023-05-03T13:03:05;100854.16;;;28.36;34.01
18022;BME280;9136;48.822;7.966;2023-05-03T13:05:52;100835.94;;;28.48;34.04
18022;BME280;9136;48.822;7.966;2023-05-03T13:08:41;100847.53;;;28.21;34.96
18022;BME280;9136;48.822;7.966;2023-05-03T13:11:29;100865.72;;;28.84;34.56
18022;BME280;9136;48.822;7.966;2023-05-03T13:14:17;100838.22;;;28.88;31.44
18022;BME280;9136;48.822;7.966;2023-05-03T13:17:05;100830.13;;;30.19;32.18
18022;BME280;9136;48.822;7.966;2023-05-03T13:19:58;100822.78;;;30.46;30.63
18022;BME280;9136;48.822;7.966;2023-05-03T13:22:47;100842.38;;;30.24;30.39
18022;BME280;9136;48.822;7.966;2023-05-03T13:25:35;100819.69;;;29.11;32.56
18022;BME280;9136;48.822;7.966;2023-05-03T13:28:25;100817.97;;;29.72;30.41
18022;BME280;9136;48.822;7.966;2023-05-03T13:31:14;100847.28;;;29.50;31.15
18022;BME280;9136;48.822;7.966;2023-05-03T13:34:02;100813.69;;;28.54;31.39
18022;BME280;9136;48.822;7.966;2023-05-03T13:36:53;100821.50;;;27.92;32.75
18022;BME280;9136;48.822;7.966;2023-05-03T13:39:41;100807.13;;;27.26;32.98
18022;BME280;9136;48.822;7.966;2023-05-03T13:42:29;100826.94;;;27.63;33.43
18022;BME280;9136;48.822;7.966;2023-05-03T13:45:17;100806.91;;;27.76;34.82
18022;BME280;9136;48.822;7.966;2023-05-03T13:48:07;100798.53;;;28.43;32.29
18022;BME280;9136;48.822;7.966;2023-05-03T13:50:57;100796.94;;;28.13;31.37
18022;BME280;9136;48.822;7.966;2023-05-03T13:53:47;100811.06;;;27.70;33.99
18022;BME280;9136;48.822;7.966;2023-05-03T13:56:34;100794.28;;;28.41;31.83
18022;BME280;9136;48.822;7.966;2023-05-03T13:59:23;100794.44;;;29.64;32.23
18022;BME280;9136;48.822;7.966;2023-05-03T14:02:21;100779.25;;;28.74;31.56
18022;BME280;9136;48.822;7.966;2023-05-03T14:05:13;100780.25;;;28.73;31.70
18022;BME280;9136;48.822;7.966;2023-05-03T14:08:01;100771.38;;;28.63;30.53
18022;BME280;9136;48.822;7.966;2023-05-03T14:10:55;100761.25;;;28.65;32.28
18022;BME280;9136;48.822;7.966;2023-05-03T14:13:51;100755.53;;;29.03;31.47
18022;BME280;9136;48.822;7.966;2023-05-03T14:16:43;100780.03;;;29.20;30.43
18022;BME280;9136;48.822;7.966;2023-05-03T14:19:33;100759.13;;;29.30;31.28
18022;BME280;9136;48.822;7.966;2023-05-03T14:22:23;100758.91;;;29.23;29.71
18022;BME280;9136;48.822;7.966;2023-05-03T14:25:13;100758.13;;;29.31;29.67
18022;BME280;9136;48.822;7.966;2023-05-03T14:28:03;100751.91;;;28.95;30.21
18022;BME280;9136;48.822;7.966;2023-05-03T14:30:57;100778.31;;;30.23;29.12
18022;BME280;9136;48.822;7.966;2023-05-03T14:33:47;100771.22;;;30.30;30.77
18022;BME280;9136;48.822;7.966;2023-05-03T14:36:39;100772.69;;;29.12;30.04
18022;BME280;9136;48.822;7.966;2023-05-03T14:39:34;100777.78;;;28.79;29.93
18022;BME280;9136;48.822;7.966;2023-05-03T14:42:24;100760.47;;;28.55;31.18
18022;BME280;9136;48.822;7.966;2023-05-03T14:45:18;100741.72;;;28.71;32.64
18022;BME280;9136;48.822;7.966;2023-05-03T14:48:12;100765.25;;;29.14;33.11
18022;BME280;9136;48.822;7.966;2023-05-03T14:51:01;100771.88;;;28.31;30.30
18022;BME280;9136;48.822;7.966;2023-05-03T14:53:50;100773.22;;;27.04;34.54
18022;BME280;9136;48.822;7.966;2023-05-03T14:56:46;100734.59;;;26.15;35.21